Overview Statistics Trail Chart Weather Telemetry Raw packets
 

This is the latest recevied weather packets stored in our database for station/object OE3MHU-12. If no packets are shown the sender has not sent any weather packets the latest 10 day(s).

<< 3 4 5 6 7 8 9 >>
Time Temp. Humidity Pressure Rain* Wind** Luminosity Snow
1788372778 21.67° C 59% 1018.4 hPa 0 mm - - -
1788370978 22.78° C 54% 1018.1 hPa 0 mm - - -
1788369179 23.89° C 48% 1017.8 hPa 0 mm - - -
1788367378 25° C 45% 1017.7 hPa 0 mm - - -
1788365578 26.11° C 42% 1017.6 hPa 0 mm - - -
1788363778 26.11° C 43% 1017.7 hPa 0 mm - - -
1788361978 26.67° C 41% 1017.9 hPa 0 mm - - -
1788360211 26.67° C 41% 1018 hPa 0 mm - - -
1788360178 26.67° C 41% 1018 hPa 0 mm - - -
1788358378 27.22° C 40% 1018.1 hPa 0 mm - - -
1788356579 27.22° C 42% 1018.1 hPa 0 mm - - -
1788352979 26.67° C 45% 1018.7 hPa 0 mm - - -
1788351179 26.67° C 41% 1018.9 hPa 0 mm - - -
1788347579 27.78° C 41% 1019.4 hPa 0 mm - - -
1788345780 27.78° C 40% 1019.7 hPa 0 mm - - -
1788343979 27.78° C 39% 1019.9 hPa 0 mm - - -
1788342179 27.78° C 39% 1020.3 hPa 0 mm - - -
1788340380 27.78° C 43% 1020.4 hPa 0 mm - - -
1788338579 26.11° C 45% 1020.5 hPa 0 mm - - -
1788336780 24.44° C 50% 1020.6 hPa 0 mm - - -
1788333180 21.11° C 63% 1020.7 hPa 0 mm - - -
1788331380 17.78° C 73% 1020.7 hPa 0 mm - - -
1788329580 12.78° C 87% 1020.7 hPa 0 mm - - -
1788327780 11.11° C 86% 1020.4 hPa 0 mm - - -
1788325980 11.11° C 86% 1020.3 hPa 0 mm - - -

* Rain latest hour (hover to see other rain measurements)
** Current wind speed in m/s (hover to see current wind gust speed)